This is the latest recevied weather packets stored in our database for station/object DL9GRB-13. If no packets are shown the sender has not sent any weather packets the latest 10 day(s).
| Time | Temp. | Humidity | Pressure | Rain* | Wind** | Luminosity | Snow |
|---|---|---|---|---|---|---|---|
| 1777720747 | 26.11° C | 31% | 1017 hPa | 0 mm | - | 778 W/m² | - |
| 1777720567 | 26.11° C | 31% | 1017 hPa | 0 mm | - | 781 W/m² | - |
| 1777720387 | 26.11° C | 31% | 1017.1 hPa | 0 mm | - | 782 W/m² | - |
| 1777720207 | 26.11° C | 32% | 1017.1 hPa | 0 mm | - | 782 W/m² | - |
| 1777720027 | 26.11° C | 30% | 1017 hPa | 0 mm | - | 784 W/m² | - |
| 1777719847 | 26.11° C | 30% | 1017 hPa | 0 mm | - | 785 W/m² | - |
| 1777719667 | 26.67° C | 31% | 1017.2 hPa | 0 mm | - | 784 W/m² | - |
| 1777719487 | 26.11° C | 31% | 1016.9 hPa | 0 mm | - | 781 W/m² | - |
| 1777719307 | 26.11° C | 31% | 1017 hPa | 0 mm | - | 782 W/m² | - |
| 1777719127 | 26.11° C | 31% | 1017.2 hPa | 0 mm | - | 779 W/m² | - |
| 1777718947 | 26.11° C | 31% | 1017.1 hPa | 0 mm | - | 778 W/m² | - |
| 1777718767 | 26.11° C | 31% | 1017.3 hPa | 0 mm | - | 767 W/m² | - |
| 1777718587 | 26.11° C | 32% | 1017.4 hPa | 0 mm | - | 760 W/m² | - |
| 1777718407 | 26.11° C | 34% | 1017.3 hPa | 0 mm | - | 632 W/m² | - |
| 1777718227 | 25.56° C | 33% | 1017.2 hPa | 0 mm | - | 739 W/m² | - |
| 1777718047 | 25.56° C | 32% | 1017.4 hPa | 0 mm | - | 762 W/m² | - |
| 1777717867 | 25.56° C | 35% | 1017.4 hPa | 0 mm | - | 757 W/m² | - |
| 1777717687 | 25° C | 33% | 1017.4 hPa | 0 mm | - | 753 W/m² | - |
| 1777717507 | 25.56° C | 32% | 1017.4 hPa | 0 mm | - | 747 W/m² | - |
| 1777717327 | 25.56° C | 33% | 1017.5 hPa | 0 mm | - | 742 W/m² | - |
| 1777717147 | 25.56° C | 36% | 1017.4 hPa | 0 mm | - | 734 W/m² | - |
| 1777716967 | 25.56° C | 34% | 1017.5 hPa | 0 mm | - | 727 W/m² | - |
| 1777716787 | 25.56° C | 34% | 1017.5 hPa | 0 mm | - | 718 W/m² | - |
| 1777716607 | 25.56° C | 34% | 1017.8 hPa | 0 mm | - | 710 W/m² | - |
| 1777716427 | 25° C | 34% | 1017.6 hPa | 0 mm | - | 709 W/m² | - |
* Rain latest hour (hover to see other rain measurements)
** Current wind speed in m/s (hover to see current wind gust speed)